sensor_id;sensor_type;location;lat;lon;timestamp;pressure;altitude;pressure_sealevel;temperature;humidity
68399;BME280;56258;52.196;13.868;2022-10-26T00:00:11;101439.47;;;22.24;48.73
68399;BME280;56258;52.196;13.868;2022-10-26T00:02:38;101439.28;;;22.25;48.81
68399;BME280;56258;52.196;13.868;2022-10-26T00:05:05;101440.78;;;22.28;48.60
68399;BME280;56258;52.196;13.868;2022-10-26T00:07:32;101437.22;;;22.27;49.26
68399;BME280;56258;52.196;13.868;2022-10-26T00:09:58;101440.97;;;22.26;49.13
68399;BME280;56258;52.196;13.868;2022-10-26T00:12:25;101436.38;;;22.27;49.46
68399;BME280;56258;52.196;13.868;2022-10-26T00:14:51;101444.31;;;22.28;49.06
68399;BME280;56258;52.196;13.868;2022-10-26T00:17:18;101437.03;;;22.29;48.99
68399;BME280;56258;52.196;13.868;2022-10-26T00:19:44;101440.59;;;22.29;49.03
68399;BME280;56258;52.196;13.868;2022-10-26T00:22:11;101447.88;;;22.29;48.81
68399;BME280;56258;52.196;13.868;2022-10-26T00:24:38;101441.63;;;22.28;49.32
68399;BME280;56258;52.196;13.868;2022-10-26T00:27:04;101443.47;;;22.28;48.78
68399;BME280;56258;52.196;13.868;2022-10-26T00:29:31;101444.69;;;22.25;49.48
68399;BME280;56258;52.196;13.868;2022-10-26T00:31:57;101446.38;;;22.26;48.93
68399;BME280;56258;52.196;13.868;2022-10-26T00:34:24;101440.13;;;22.26;48.96
68399;BME280;56258;52.196;13.868;2022-10-26T00:36:51;101437.59;;;22.24;49.43
68399;BME280;56258;52.196;13.868;2022-10-26T00:39:17;101449.91;;;22.27;49.60
68399;BME280;56258;52.196;13.868;2022-10-26T00:41:44;101444.50;;;22.27;48.85
68399;BME280;56258;52.196;13.868;2022-10-26T00:47:10;101441.31;;;22.23;49.32
68399;BME280;56258;52.196;13.868;2022-10-26T00:49:39;101444.88;;;22.24;49.22
68399;BME280;56258;52.196;13.868;2022-10-26T00:52:07;101447.59;;;22.24;49.26
68399;BME280;56258;52.196;13.868;2022-10-26T00:54:34;101451.47;;;22.21;49.18
68399;BME280;56258;52.196;13.868;2022-10-26T00:57:01;101451.28;;;22.23;49.36
68399;BME280;56258;52.196;13.868;2022-10-26T00:59:28;101451.47;;;22.21;49.30
68399;BME280;56258;52.196;13.868;2022-10-26T01:01:54;101453.34;;;22.21;49.76
68399;BME280;56258;52.196;13.868;2022-10-26T01:04:21;101446.25;;;22.20;49.40
68399;BME280;56258;52.196;13.868;2022-10-26T01:06:48;101447.28;;;22.19;49.35
68399;BME280;56258;52.196;13.868;2022-10-26T01:09:15;101435.59;;;22.18;49.44
68399;BME280;56258;52.196;13.868;2022-10-26T01:11:43;101447.28;;;22.19;49.53
68399;BME280;56258;52.196;13.868;2022-10-26T01:14:11;101436.81;;;22.16;49.17
68399;BME280;56258;52.196;13.868;2022-10-26T01:21:54;101444.09;;;22.15;49.18
68399;BME280;56258;52.196;13.868;2022-10-26T01:24:50;101444.94;;;22.16;49.26
68399;BME280;56258;52.196;13.868;2022-10-26T01:27:30;101448.34;;;22.09;49.48
68399;BME280;56258;52.196;13.868;2022-10-26T01:41:12;101436.16;;;22.13;49.15
68399;BME280;56258;52.196;13.868;2022-10-26T01:43:46;101434.94;;;22.16;49.91
68399;BME280;56258;52.196;13.868;2022-10-26T01:46:17;101436.81;;;22.16;49.32
68399;BME280;56258;52.196;13.868;2022-10-26T01:48:53;101426.34;;;22.12;49.67
68399;BME280;56258;52.196;13.868;2022-10-26T01:51:21;101441.56;;;22.13;49.34
68399;BME280;56258;52.196;13.868;2022-10-26T01:53:48;101438.19;;;22.11;49.65
68399;BME280;56258;52.196;13.868;2022-10-26T01:56:19;101436.50;;;22.10;49.69
68399;BME280;56258;52.196;13.868;2022-10-26T02:01:49;101436.03;;;22.07;49.38
68399;BME280;56258;52.196;13.868;2022-10-26T02:07:03;101430.09;;;22.03;49.55
68399;BME280;56258;52.196;13.868;2022-10-26T02:12:28;101430.94;;;22.04;49.29
68399;BME280;56258;52.196;13.868;2022-10-26T02:15:21;101431.13;;;22.02;49.47
68399;BME280;56258;52.196;13.868;2022-10-26T02:18:34;101429.75;;;22.06;49.26
68399;BME280;56258;52.196;13.868;2022-10-26T02:20:47;101431.13;;;22.02;49.38
68399;BME280;56258;52.196;13.868;2022-10-26T02:23:15;101433.31;;;21.99;49.51
68399;BME280;56258;52.196;13.868;2022-10-26T02:25:53;101429.97;;;21.97;49.64
68399;BME280;56258;52.196;13.868;2022-10-26T02:28:24;101439.09;;;21.96;49.85
68399;BME280;56258;52.196;13.868;2022-10-26T02:30:54;101437.91;;;21.98;49.05
68399;BME280;56258;52.196;13.868;2022-10-26T02:33:24;101435.38;;;21.97;49.28
68399;BME280;56258;52.196;13.868;2022-10-26T02:35:53;101441.63;;;21.97;49.22
68399;BME280;56258;52.196;13.868;2022-10-26T02:38:22;101439.47;;;21.93;49.47
68399;BME280;56258;52.196;13.868;2022-10-26T02:40:50;101431.16;;;21.94;49.75
68399;BME280;56258;52.196;13.868;2022-10-26T02:43:18;101430.16;;;21.95;49.20
68399;BME280;56258;52.196;13.868;2022-10-26T02:45:53;101438.09;;;21.97;49.65
68399;BME280;56258;52.196;13.868;2022-10-26T02:48:22;101427.81;;;21.92;49.47
68399;BME280;56258;52.196;13.868;2022-10-26T02:51:00;101427.63;;;21.94;49.33
68399;BME280;56258;52.196;13.868;2022-10-26T02:53:35;101426.59;;;21.95;49.02
68399;BME280;56258;52.196;13.868;2022-10-26T02:56:11;101430.31;;;21.94;49.29
68399;BME280;56258;52.196;13.868;2022-10-26T02:58:45;101434.72;;;21.95;49.52
68399;BME280;56258;52.196;13.868;2022-10-26T03:01:13;101439.47;;;21.93;49.22
68399;BME280;56258;52.196;13.868;2022-10-26T03:03:40;101446.56;;;21.94;49.67
68399;BME280;56258;52.196;13.868;2022-10-26T03:06:07;101434.06;;;21.93;49.65
68399;BME280;56258;52.196;13.868;2022-10-26T03:08:34;101437.44;;;21.95;49.19
68399;BME280;56258;52.196;13.868;2022-10-26T03:11:00;101434.06;;;21.93;49.96
68399;BME280;56258;52.196;13.868;2022-10-26T03:13:27;101419.69;;;21.92;49.49
68399;BME280;56258;52.196;13.868;2022-10-26T03:15:54;101428.66;;;21.93;49.16
68399;BME280;56258;52.196;13.868;2022-10-26T03:18:22;101422.41;;;21.92;49.72
68399;BME280;56258;52.196;13.868;2022-10-26T03:20:48;101427.63;;;21.94;49.06
68399;BME280;56258;52.196;13.868;2022-10-26T03:23:15;101424.91;;;21.94;49.16
68399;BME280;56258;52.196;13.868;2022-10-26T03:25:42;101441.16;;;21.94;49.59
68399;BME280;56258;52.196;13.868;2022-10-26T03:28:08;101431.53;;;21.91;49.62
68399;BME280;56258;52.196;13.868;2022-10-26T03:30:35;101437.97;;;21.90;49.63
68399;BME280;56258;52.196;13.868;2022-10-26T03:33:01;101436.94;;;21.91;49.72
68399;BME280;56258;52.196;13.868;2022-10-26T03:35:28;101439.66;;;21.91;49.22
68399;BME280;56258;52.196;13.868;2022-10-26T03:37:55;101434.25;;;21.91;49.18
68399;BME280;56258;52.196;13.868;2022-10-26T03:40:21;101434.25;;;21.91;48.93
68399;BME280;56258;52.196;13.868;2022-10-26T03:42:48;101435.28;;;21.90;48.94
68399;BME280;56258;52.196;13.868;2022-10-26T03:45:15;101435.47;;;21.89;49.73
68399;BME280;56258;52.196;13.868;2022-10-26T03:47:45;101437.78;;;21.92;49.12
68399;BME280;56258;52.196;13.868;2022-10-26T03:50:15;101429.84;;;21.90;49.78
68399;BME280;56258;52.196;13.868;2022-10-26T03:52:42;101421.09;;;21.88;49.46
68399;BME280;56258;52.196;13.868;2022-10-26T03:55:09;101429.00;;;21.90;49.54
68399;BME280;56258;52.196;13.868;2022-10-26T03:57:43;101425.09;;;21.92;48.83
68399;BME280;56258;52.196;13.868;2022-10-26T04:00:12;101421.09;;;21.88;49.63
68399;BME280;56258;52.196;13.868;2022-10-26T04:02:43;101431.91;;;21.88;49.80
68399;BME280;56258;52.196;13.868;2022-10-26T04:05:15;101430.56;;;21.84;48.96
68399;BME280;56258;52.196;13.868;2022-10-26T04:07:42;101422.25;;;21.85;49.62
68399;BME280;56258;52.196;13.868;2022-10-26T04:10:09;101426.00;;;21.84;49.76
68399;BME280;56258;52.196;13.868;2022-10-26T04:12:38;101430.19;;;21.87;49.61
68399;BME280;56258;52.196;13.868;2022-10-26T04:15:05;101424.31;;;21.83;49.64
68399;BME280;56258;52.196;13.868;2022-10-26T04:17:33;101428.50;;;21.86;49.29
68399;BME280;56258;52.196;13.868;2022-10-26T04:19:59;101430.56;;;21.84;49.19
68399;BME280;56258;52.196;13.868;2022-10-26T04:22:26;101431.41;;;21.84;49.19
68399;BME280;56258;52.196;13.868;2022-10-26T04:24:53;101437.00;;;21.83;49.09
68399;BME280;56258;52.196;13.868;2022-10-26T04:27:19;101432.25;;;21.85;48.95
68399;BME280;56258;52.196;13.868;2022-10-26T04:29:46;101437.84;;;21.83;49.63
68399;BME280;56258;52.196;13.868;2022-10-26T04:32:13;101436.81;;;21.84;49.71
68399;BME280;56258;52.196;13.868;2022-10-26T04:34:39;101435.13;;;21.83;48.89
68399;BME280;56258;52.196;13.868;2022-10-26T04:37:06;101435.97;;;21.84;49.75
68399;BME280;56258;52.196;13.868;2022-10-26T04:39:32;101443.91;;;21.85;49.08
68399;BME280;56258;52.196;13.868;2022-10-26T04:41:59;101437.84;;;21.83;49.10
68399;BME280;56258;52.196;13.868;2022-10-26T04:44:26;101436.16;;;21.82;49.48
68399;BME280;56258;52.196;13.868;2022-10-26T04:46:52;101430.75;;;21.82;49.18
68399;BME280;56258;52.196;13.868;2022-10-26T04:49:19;101441.94;;;21.79;49.05
68399;BME280;56258;52.196;13.868;2022-10-26T04:51:46;101440.91;;;21.80;49.46
68399;BME280;56258;52.196;13.868;2022-10-26T04:54:12;101445.31;;;21.81;48.86
68399;BME280;56258;52.196;13.868;2022-10-26T04:56:39;101441.09;;;21.79;49.55
68399;BME280;56258;52.196;13.868;2022-10-26T04:59:05;101434.84;;;21.78;49.14
68399;BME280;56258;52.196;13.868;2022-10-26T05:01:32;101436.72;;;21.78;49.02
68399;BME280;56258;52.196;13.868;2022-10-26T05:03:59;101442.13;;;21.78;49.62
68399;BME280;56258;52.196;13.868;2022-10-26T05:06:26;101439.41;;;21.78;48.96
68399;BME280;56258;52.196;13.868;2022-10-26T05:08:52;101433.31;;;21.76;49.37
68399;BME280;56258;52.196;13.868;2022-10-26T05:11:19;101428.75;;;21.76;48.84
68399;BME280;56258;52.196;13.868;2022-10-26T05:13:46;101429.59;;;21.77;49.46
68399;BME280;56258;52.196;13.868;2022-10-26T05:16:14;101428.91;;;21.75;49.02
68399;BME280;56258;52.196;13.868;2022-10-26T05:18:41;101436.72;;;21.78;48.86
68399;BME280;56258;52.196;13.868;2022-10-26T05:21:08;101434.69;;;21.72;49.54
68399;BME280;56258;52.196;13.868;2022-10-26T05:23:34;101431.81;;;21.73;49.11
68399;BME280;56258;52.196;13.868;2022-10-26T05:26:01;101425.56;;;21.73;49.57
68399;BME280;56258;52.196;13.868;2022-10-26T05:28:28;101432.00;;;21.72;48.92
68399;BME280;56258;52.196;13.868;2022-10-26T05:30:57;101433.50;;;21.74;49.17
68399;BME280;56258;52.196;13.868;2022-10-26T05:33:23;101433.00;;;21.71;48.91
68399;BME280;56258;52.196;13.868;2022-10-26T05:35:53;101430.31;;;21.71;49.53
68399;BME280;56258;52.196;13.868;2022-10-26T05:38:20;101428.63;;;21.70;49.84
68399;BME280;56258;52.196;13.868;2022-10-26T05:40:50;101431.69;;;21.67;49.01
68399;BME280;56258;52.196;13.868;2022-10-26T05:43:19;101437.78;;;21.69;49.44
68399;BME280;56258;52.196;13.868;2022-10-26T05:45:46;101435.91;;;21.69;48.92
68399;BME280;56258;52.196;13.868;2022-10-26T05:48:13;101441.69;;;21.66;49.55
68399;BME280;56258;52.196;13.868;2022-10-26T05:50:39;101438.13;;;21.66;49.44
68399;BME280;56258;52.196;13.868;2022-10-26T05:53:06;101438.97;;;21.66;49.48
68399;BME280;56258;52.196;13.868;2022-10-26T05:55:33;101436.09;;;21.68;49.32
68399;BME280;56258;52.196;13.868;2022-10-26T05:58:00;101444.19;;;21.68;49.49
68399;BME280;56258;52.196;13.868;2022-10-26T06:00:28;101452.66;;;21.65;49.37
68399;BME280;56258;52.196;13.868;2022-10-26T06:05:53;101454.84;;;21.69;49.80
68399;BME280;56258;52.196;13.868;2022-10-26T06:08:23;101454.00;;;21.69;49.25
68399;BME280;56258;52.196;13.868;2022-10-26T06:10:51;101452.81;;;21.71;49.05
68399;BME280;56258;52.196;13.868;2022-10-26T06:13:20;101459.06;;;21.72;49.42
68399;BME280;56258;52.196;13.868;2022-10-26T06:16:19;101455.97;;;21.75;49.79
68399;BME280;56258;52.196;13.868;2022-10-26T06:30:04;101469.19;;;21.78;48.92
68399;BME280;56258;52.196;13.868;2022-10-26T06:32:35;101471.88;;;21.78;48.77
68399;BME280;56258;52.196;13.868;2022-10-26T06:37:51;101468.16;;;21.79;49.01
68399;BME280;56258;52.196;13.868;2022-10-26T06:40:20;101464.06;;;21.83;48.49
68399;BME280;56258;52.196;13.868;2022-10-26T06:42:48;101467.78;;;21.82;49.21
68399;BME280;56258;52.196;13.868;2022-10-26T06:45:15;101470.31;;;21.83;49.04
68399;BME280;56258;52.196;13.868;2022-10-26T06:47:57;101470.78;;;21.87;48.34
68399;BME280;56258;52.196;13.868;2022-10-26T06:51:01;101477.41;;;21.84;49.06
68399;BME280;56258;52.196;13.868;2022-10-26T06:56:10;101481.47;;;21.89;48.55
68399;BME280;56258;52.196;13.868;2022-10-26T06:58:38;101476.91;;;21.89;48.86
68399;BME280;56258;52.196;13.868;2022-10-26T07:01:06;101481.28;;;21.90;49.08
68399;BME280;56258;52.196;13.868;2022-10-26T07:03:33;101482.31;;;21.89;49.32
68399;BME280;56258;52.196;13.868;2022-10-26T07:05:59;101485.03;;;21.89;48.46
68399;BME280;56258;52.196;13.868;2022-10-26T07:08:26;101490.25;;;21.91;48.51
68399;BME280;56258;52.196;13.868;2022-10-26T07:10:53;101491.09;;;21.91;49.01
68399;BME280;56258;52.196;13.868;2022-10-26T07:13:20;101499.88;;;21.93;48.93
68399;BME280;56258;52.196;13.868;2022-10-26T07:15:46;101492.97;;;21.91;48.32
68399;BME280;56258;52.196;13.868;2022-10-26T07:18:13;101494.16;;;21.88;48.83
68399;BME280;56258;52.196;13.868;2022-10-26T07:20:40;101489.09;;;21.85;48.79
68399;BME280;56258;52.196;13.868;2022-10-26T07:23:08;101493.16;;;21.89;48.39
68399;BME280;56258;52.196;13.868;2022-10-26T07:25:38;101487.38;;;21.92;48.36
68399;BME280;56258;52.196;13.868;2022-10-26T07:28:07;101487.84;;;21.96;48.34
68399;BME280;56258;52.196;13.868;2022-10-26T07:30:36;101490.19;;;21.99;48.68
68399;BME280;56258;52.196;13.868;2022-10-26T07:33:09;101495.44;;;22.00;48.50
68399;BME280;56258;52.196;13.868;2022-10-26T07:35:36;101490.38;;;21.97;48.46
68399;BME280;56258;52.196;13.868;2022-10-26T07:38:04;101486.63;;;21.98;48.42
68399;BME280;56258;52.196;13.868;2022-10-26T07:40:31;101478.19;;;22.01;48.26
68399;BME280;56258;52.196;13.868;2022-10-26T07:42:59;101481.88;;;22.08;48.02
68399;BME280;56258;52.196;13.868;2022-10-26T07:45:27;101487.53;;;22.22;47.43
68399;BME280;56258;52.196;13.868;2022-10-26T07:47:55;101483.22;;;22.35;47.46
68399;BME280;56258;52.196;13.868;2022-10-26T07:50:22;101488.44;;;22.60;46.89
68399;BME280;56258;52.196;13.868;2022-10-26T07:52:49;101486.72;;;22.82;46.32
68399;BME280;56258;52.196;13.868;2022-10-26T07:55:16;101494.50;;;22.99;45.67
68399;BME280;56258;52.196;13.868;2022-10-26T07:57:43;101494.44;;;23.08;45.58
68399;BME280;56258;52.196;13.868;2022-10-26T08:00:11;101483.50;;;23.31;44.64
68399;BME280;56258;52.196;13.868;2022-10-26T08:02:37;101492.38;;;23.54;44.21
68399;BME280;56258;52.196;13.868;2022-10-26T08:05:04;101493.59;;;23.66;44.01
68399;BME280;56258;52.196;13.868;2022-10-26T08:07:31;101491.28;;;23.84;43.64
68399;BME280;56258;52.196;13.868;2022-10-26T08:09:58;101489.59;;;23.98;43.18
68399;BME280;56258;52.196;13.868;2022-10-26T08:12:24;101491.63;;;24.11;42.79
68399;BME280;56258;52.196;13.868;2022-10-26T08:14:51;101490.13;;;24.30;42.37
68399;BME280;56258;52.196;13.868;2022-10-26T08:17:17;101491.19;;;24.50;42.05
68399;BME280;56258;52.196;13.868;2022-10-26T08:19:46;101499.91;;;24.67;41.50
68399;BME280;56258;52.196;13.868;2022-10-26T08:22:13;101499.84;;;24.60;41.76
68399;BME280;56258;52.196;13.868;2022-10-26T08:24:44;101493.69;;;24.30;42.48
68399;BME280;56258;52.196;13.868;2022-10-26T08:27:13;101497.72;;;23.62;43.62
68399;BME280;56258;52.196;13.868;2022-10-26T08:29:40;101503.69;;;23.13;45.11
68399;BME280;56258;52.196;13.868;2022-10-26T08:32:07;101499.28;;;22.97;45.46
68399;BME280;56258;52.196;13.868;2022-10-26T08:34:34;101495.84;;;23.18;45.14
68399;BME280;56258;52.196;13.868;2022-10-26T08:37:00;101498.38;;;24.00;43.02
68399;BME280;56258;52.196;13.868;2022-10-26T08:39:27;101488.16;;;24.02;42.95
68399;BME280;56258;52.196;13.868;2022-10-26T08:42:19;101488.84;;;23.39;44.11
68399;BME280;56258;52.196;13.868;2022-10-26T08:44:51;101496.09;;;22.94;45.55
68399;BME280;56258;52.196;13.868;2022-10-26T08:47:27;101484.13;;;22.65;46.42
68399;BME280;56258;52.196;13.868;2022-10-26T08:50:09;101487.78;;;22.58;46.35
68399;BME280;56258;52.196;13.868;2022-10-26T08:52:55;101495.34;;;22.62;46.38
68399;BME280;56258;52.196;13.868;2022-10-26T08:55:32;101492.31;;;22.57;46.58
68399;BME280;56258;52.196;13.868;2022-10-26T08:58:06;101492.78;;;22.46;46.60
68399;BME280;56258;52.196;13.868;2022-10-26T09:00:39;101494.53;;;22.39;47.12
68399;BME280;56258;52.196;13.868;2022-10-26T09:03:24;101498.91;;;22.40;46.87
68399;BME280;56258;52.196;13.868;2022-10-26T09:08:36;101501.25;;;22.43;46.76
68399;BME280;56258;52.196;13.868;2022-10-26T09:22:06;101504.44;;;23.07;45.28
68399;BME280;56258;52.196;13.868;2022-10-26T09:24:41;101496.72;;;22.81;45.60
68399;BME280;56258;52.196;13.868;2022-10-26T09:27:32;101492.47;;;22.79;45.63
68399;BME280;56258;52.196;13.868;2022-10-26T09:30:05;101499.75;;;22.63;46.79
68399;BME280;56258;52.196;13.868;2022-10-26T09:32:41;101503.66;;;22.61;46.45
68399;BME280;56258;52.196;13.868;2022-10-26T09:35:17;101498.13;;;22.54;46.91
68399;BME280;56258;52.196;13.868;2022-10-26T09:37:50;101511.00;;;22.52;46.71
68399;BME280;56258;52.196;13.868;2022-10-26T09:45:55;101505.28;;;23.22;45.03
68399;BME280;56258;52.196;13.868;2022-10-26T09:50:58;101511.75;;;23.21;44.88
68399;BME280;56258;52.196;13.868;2022-10-26T09:53:30;101514.94;;;23.69;43.65
68399;BME280;56258;52.196;13.868;2022-10-26T09:56:11;101514.03;;;24.34;42.23
68399;BME280;56258;52.196;13.868;2022-10-26T09:58:49;101517.75;;;23.61;43.94
68399;BME280;56258;52.196;13.868;2022-10-26T10:01:27;101516.19;;;22.99;45.86
68399;BME280;56258;52.196;13.868;2022-10-26T10:06:39;101508.97;;;22.92;45.83
68399;BME280;56258;52.196;13.868;2022-10-26T10:09:10;101507.38;;;22.83;45.92
68399;BME280;56258;52.196;13.868;2022-10-26T10:11:38;101513.94;;;23.03;45.62
68399;BME280;56258;52.196;13.868;2022-10-26T10:14:08;101509.94;;;23.88;43.74
68399;BME280;56258;52.196;13.868;2022-10-26T10:16:35;101516.75;;;25.74;39.77
68399;BME280;56258;52.196;13.868;2022-10-26T10:19:01;101507.84;;;27.59;35.69
68399;BME280;56258;52.196;13.868;2022-10-26T10:21:39;101508.50;;;27.41;36.05
68399;BME280;56258;52.196;13.868;2022-10-26T10:27:07;101502.34;;;24.83;41.24
68399;BME280;56258;52.196;13.868;2022-10-26T10:29:43;101508.00;;;24.60;41.89
68399;BME280;56258;52.196;13.868;2022-10-26T10:32:18;101504.25;;;24.61;41.93
68399;BME280;56258;52.196;13.868;2022-10-26T10:34:49;101496.06;;;24.33;42.61
68399;BME280;56258;52.196;13.868;2022-10-26T10:37:33;101496.81;;;23.91;43.64
68399;BME280;56258;52.196;13.868;2022-10-26T10:42:36;101498.81;;;23.23;45.11
68399;BME280;56258;52.196;13.868;2022-10-26T10:45:05;101506.38;;;23.13;45.37
68399;BME280;56258;52.196;13.868;2022-10-26T10:47:34;101498.06;;;23.15;45.35
68399;BME280;56258;52.196;13.868;2022-10-26T10:50:17;101498.06;;;23.00;45.50
68399;BME280;56258;52.196;13.868;2022-10-26T10:52:45;101493.41;;;22.94;45.67
68399;BME280;56258;52.196;13.868;2022-10-26T10:55:19;101504.69;;;22.97;45.82
68399;BME280;56258;52.196;13.868;2022-10-26T11:00:40;101499.53;;;22.88;45.93
68399;BME280;56258;52.196;13.868;2022-10-26T11:06:16;101507.22;;;22.99;45.37
68399;BME280;56258;52.196;13.868;2022-10-26T11:09:01;101506.72;;;22.81;46.03
68399;BME280;56258;52.196;13.868;2022-10-26T11:11:39;101500.03;;;22.68;46.38
68399;BME280;56258;52.196;13.868;2022-10-26T11:14:32;101501.59;;;22.63;46.61
68399;BME280;56258;52.196;13.868;2022-10-26T11:17:21;101505.22;;;22.55;47.00
68399;BME280;56258;52.196;13.868;2022-10-26T11:19:54;101496.25;;;22.55;46.46
68399;BME280;56258;52.196;13.868;2022-10-26T11:22:33;101502.22;;;22.50;46.76
68399;BME280;56258;52.196;13.868;2022-10-26T11:25:12;101494.88;;;22.59;46.45
68399;BME280;56258;52.196;13.868;2022-10-26T11:27:45;101497.41;;;22.83;46.04
68399;BME280;56258;52.196;13.868;2022-10-26T11:30:20;101490.97;;;23.28;44.82
68399;BME280;56258;52.196;13.868;2022-10-26T11:32:54;101488.22;;;23.73;43.94
68399;BME280;56258;52.196;13.868;2022-10-26T11:38:13;101495.84;;;23.18;44.74
68399;BME280;56258;52.196;13.868;2022-10-26T11:41:13;101496.91;;;22.57;46.79
68399;BME280;56258;52.196;13.868;2022-10-26T11:43:52;101494.38;;;22.32;46.92
68399;BME280;56258;52.196;13.868;2022-10-26T11:46:44;101495.91;;;22.35;46.82
68399;BME280;56258;52.196;13.868;2022-10-26T11:51:48;101490.66;;;22.33;47.47
68399;BME280;56258;52.196;13.868;2022-10-26T11:54:22;101485.97;;;22.88;45.77
68399;BME280;56258;52.196;13.868;2022-10-26T11:56:52;101492.78;;;24.23;42.47
68399;BME280;56258;52.196;13.868;2022-10-26T11:59:21;101488.91;;;23.96;42.94
68399;BME280;56258;52.196;13.868;2022-10-26T12:01:57;101497.53;;;23.19;44.73
68399;BME280;56258;52.196;13.868;2022-10-26T12:04:29;101494.25;;;23.24;44.84
68399;BME280;56258;52.196;13.868;2022-10-26T12:06:58;101488.25;;;24.52;41.81
68399;BME280;56258;52.196;13.868;2022-10-26T12:09:30;101485.25;;;24.04;42.97
68399;BME280;56258;52.196;13.868;2022-10-26T12:12:08;101495.78;;;23.92;43.40
68399;BME280;56258;52.196;13.868;2022-10-26T12:14:55;101488.13;;;24.60;41.97
68399;BME280;56258;52.196;13.868;2022-10-26T12:17:34;101488.38;;;25.21;40.85
68399;BME280;56258;52.196;13.868;2022-10-26T12:22:44;101477.81;;;25.80;39.74
68399;BME280;56258;52.196;13.868;2022-10-26T12:35:29;101481.53;;;26.67;38.15
68399;BME280;56258;52.196;13.868;2022-10-26T12:37:57;101472.09;;;26.43;38.39
68399;BME280;56258;52.196;13.868;2022-10-26T12:42:57;101467.38;;;26.04;38.90
68399;BME280;56258;52.196;13.868;2022-10-26T12:48:47;101462.75;;;24.53;42.33
68399;BME280;56258;52.196;13.868;2022-10-26T12:57:13;101472.25;;;24.35;42.88
68399;BME280;56258;52.196;13.868;2022-10-26T12:59:56;101465.97;;;24.35;42.96
68399;BME280;56258;52.196;13.868;2022-10-26T13:08:09;101461.59;;;24.62;42.40
68399;BME280;56258;52.196;13.868;2022-10-26T13:10:39;101463.47;;;24.89;42.23
68399;BME280;56258;52.196;13.868;2022-10-26T13:13:20;101449.81;;;25.11;41.54
68399;BME280;56258;52.196;13.868;2022-10-26T13:15:55;101451.38;;;25.26;41.59
68399;BME280;56258;52.196;13.868;2022-10-26T13:18:22;101457.09;;;25.38;40.87
68399;BME280;56258;52.196;13.868;2022-10-26T13:21:13;101459.56;;;25.33;41.01
68399;BME280;56258;52.196;13.868;2022-10-26T13:26:15;101454.94;;;25.27;41.63
68399;BME280;56258;52.196;13.868;2022-10-26T13:33:51;101454.19;;;25.46;41.00
68399;BME280;56258;52.196;13.868;2022-10-26T13:36:28;101457.09;;;25.38;40.92
68399;BME280;56258;52.196;13.868;2022-10-26T13:38:59;101462.53;;;25.38;41.40
68399;BME280;56258;52.196;13.868;2022-10-26T13:41:35;101462.13;;;25.41;41.29
68399;BME280;56258;52.196;13.868;2022-10-26T13:44:05;101469.28;;;25.55;41.21
68399;BME280;56258;52.196;13.868;2022-10-26T13:46:35;101461.53;;;25.52;41.13
68399;BME280;56258;52.196;13.868;2022-10-26T13:49:17;101457.59;;;25.62;40.94
68399;BME280;56258;52.196;13.868;2022-10-26T13:51:48;101471.44;;;25.67;40.98
68399;BME280;56258;52.196;13.868;2022-10-26T13:54:20;101474.16;;;25.67;41.00
68399;BME280;56258;52.196;13.868;2022-10-26T13:59:37;101473.41;;;25.79;40.52
68399;BME280;56258;52.196;13.868;2022-10-26T14:02:06;101473.19;;;25.81;40.32
68399;BME280;56258;52.196;13.868;2022-10-26T14:04:33;101474.06;;;25.88;40.46
68399;BME280;56258;52.196;13.868;2022-10-26T14:06:59;101483.69;;;25.91;40.41
68399;BME280;56258;52.196;13.868;2022-10-26T14:09:27;101482.44;;;25.93;40.56
68399;BME280;56258;52.196;13.868;2022-10-26T14:11:57;101483.50;;;25.92;40.11
68399;BME280;56258;52.196;13.868;2022-10-26T14:14:27;101481.44;;;25.94;40.28
68399;BME280;56258;52.196;13.868;2022-10-26T14:16:55;101476.16;;;25.86;40.83
68399;BME280;56258;52.196;13.868;2022-10-26T14:19:31;101473.25;;;25.94;40.28
68399;BME280;56258;52.196;13.868;2022-10-26T14:21:59;101483.50;;;25.85;40.61
68399;BME280;56258;52.196;13.868;2022-10-26T14:24:28;101477.19;;;25.92;40.06
68399;BME280;56258;52.196;13.868;2022-10-26T14:27:19;101471.78;;;25.98;40.14
68399;BME280;56258;52.196;13.868;2022-10-26T14:29:46;101473.03;;;25.96;40.23
68399;BME280;56258;52.196;13.868;2022-10-26T14:32:33;101475.84;;;25.68;40.93
68399;BME280;56258;52.196;13.868;2022-10-26T14:35:02;101474.34;;;25.17;41.82
68399;BME280;56258;52.196;13.868;2022-10-26T14:39:58;101485.41;;;24.60;43.06
68399;BME280;56258;52.196;13.868;2022-10-26T14:42:32;101482.50;;;24.61;43.19
68399;BME280;56258;52.196;13.868;2022-10-26T14:45:00;101479.25;;;24.51;43.62
68399;BME280;56258;52.196;13.868;2022-10-26T14:47:34;101471.84;;;24.38;43.84
68399;BME280;56258;52.196;13.868;2022-10-26T14:50:02;101483.09;;;24.35;43.73
68399;BME280;56258;52.196;13.868;2022-10-26T14:52:31;101474.56;;;24.38;43.61
68399;BME280;56258;52.196;13.868;2022-10-26T14:55:23;101472.31;;;24.27;43.90
68399;BME280;56258;52.196;13.868;2022-10-26T14:57:51;101487.06;;;24.18;44.35
68399;BME280;56258;52.196;13.868;2022-10-26T15:00:19;101485.34;;;24.10;44.37
68399;BME280;56258;52.196;13.868;2022-10-26T15:02:48;101485.84;;;23.99;44.88
68399;BME280;56258;52.196;13.868;2022-10-26T15:05:20;101490.78;;;23.96;44.69
68399;BME280;56258;52.196;13.868;2022-10-26T15:07:47;101491.84;;;23.95;44.66
68399;BME280;56258;52.196;13.868;2022-10-26T15:15:57;101499.97;;;23.73;45.00